Terminal Aerodrome Forecast
Issued by NWS Blacksburg, VA

Home | Current Version | Previous Version | Text Only | Print | Product List | Glossary On
Versions: 1 2 3 4 5 6 7 8 9 10 11 12 13 14 15 16 17 18 19 20 21 22 23 24 25 26 27 28 29 30 31 32 33 34 35 36 37 38 39 40 41 42 43 44 45 46 47 48
670
FTUS41 KRNK 291752 AAA
TAFBLF
TAF AMD
KBLF 291752Z 2918/3018 13010G18KT P6SM -SHRA SCT025 BKN035
      TEMPO 2918/2920 3SM TSRA OVC025CB
     FM300000 15004KT 6SM -SHRA OVC040
     FM300400 VRB03KT P6SM SCT007 BKN020=

USA.gov is the U.S. government's official web portal to all federal, state and local government web resources and services.